Structure, Texas
Current Conditions -  °F | °C
As of 6:15 AM on Sunday 23 Nov 2014 (Local Time) from KEDC Reporting Station
Clear Clear  
Wind Chill: 12°   Ceiling: Unl
Heat Index: 12°   Visibility: 10mi
Dew Point: 12°   Wind: 8mph
Humidity: 100%   Direction: 230°SW
Pressure: 29.66"   Gusts: NA
Location:  30.2988°N, 97.3874°W
Report Text: KEDC 231215Z AUTO 23007KT 10SM CLR 12/12 A2966 RMK AO2
Loading
Personal Weather Stations






























Interactive Weather Map New forecast layout! Learn more

10-Day Weather Forecast

Advertisements
Track Severe Weather on mobile